Latest Weather Observations for Cape Grim

IDT60801

Issued at 11:51 pm EST Friday 5 June 2020 (issued every 10 minutes, with the page automatically refreshed every 10 minutes)

About weather observations | Map of weather stations | Latest weather observations for TAS | Other Formats
Station Details ID: 091331 Name: CAPE GRIM Lat: -40.68 Lon: 144.69 Height: 86.0 m
Data from the previous 72 hours. | See also: Recent months at Cape Grim
Date/Time
EST
Temp
°C
App
Temp
°C
Dew
Point
°C
Rel
Hum
%
Delta-T
°C
Wind Press
QNH
hPa
Press
MSL
hPa
Rain since
9am
mm
Dir  Spd
km/h
Gust
km/h
Spd
kts
Gust
kts
05/11:30pm 7.5 - - - - SSE 22 32 12 17 1026.7 1026.8 0.4
05/11:00pm 7.9 - - - - SSE 24 32 13 17 1026.8 1026.9 0.4
05/10:30pm 8.2 - - - - SSE 22 30 12 16 1027.1 1027.2 0.4
05/10:00pm 8.3 - - - - SSE 15 20 8 11 1027.1 1027.2 0.4
05/09:30pm 8.8 - - - - SSE 17 22 9 12 1027.2 1027.3 0.4
05/09:00pm 9.0 - - - - S 17 22 9 12 1027.1 1027.2 0.4
05/08:30pm 9.2 - - - - SSE 19 28 10 15 1027.0 1027.1 0.4
05/08:00pm 9.4 - - - - S 20 28 11 15 1027.0 1027.1 0.4
05/07:30pm 9.9 - - - - S 20 28 11 15 1026.7 1026.8 0.4
05/07:00pm 9.8 - - - - S 22 33 12 18 1026.4 1026.5 0.4
05/06:30pm 10.0 - - - - S 22 33 12 18 1026.1 1026.2 0.4
05/06:00pm 10.4 - - - - S 30 44 16 24 1025.6 1025.7 0.4
05/05:30pm 11.0 - - - - S 24 37 13 20 1025.3 1025.4 0.4
05/05:19pm 10.9 - - - - S 30 43 16 23 1025.2 1025.3 0.4
05/05:00pm 11.0 - - - - SSW 28 43 15 23 1024.9 1025.0 0.4
05/04:38pm 11.9 - - - - WSW 24 46 13 25 1024.8 1024.9 0.0
05/04:30pm 12.2 - - - - W 24 44 13 24 1024.7 1024.8 0.0
05/04:18pm 12.3 - - - - WSW 26 41 14 22 1024.6 1024.7 0.0
05/04:00pm 12.2 - - - - W 28 44 15 24 1024.6 1024.7 0.0
05/03:30pm 12.2 - - - - W 28 46 15 25 1024.7 1024.8 0.0
05/03:19pm 12.3 - - - - W 32 50 17 27 1024.6 1024.7 0.0
05/03:00pm 12.1 - - - - W 32 52 17 28 1024.6 1024.7 0.0
05/02:55pm 12.2 - - - - W 28 46 15 25 1024.6 1024.7 0.0
05/02:48pm 12.4 - - - - WSW 26 48 14 26 1024.7 1024.8 0.0
05/02:30pm 12.4 - - - - WSW 24 46 13 25 1024.7 1024.8 0.0
05/02:19pm 12.4 - - - - W 28 46 15 25 1024.8 1024.9 0.0
05/02:15pm 12.4 - - - - W 30 46 16 25 1024.8 1024.9 0.0
05/02:00pm 12.5 - - - - W 30 57 16 31 1024.8 1024.9 0.0
05/01:31pm 12.5 - - - - W 28 46 15 25 1025.0 1025.1 0.0
05/01:30pm 12.5 - - - - W 30 46 16 25 1025.0 1025.1 0.0
05/01:00pm 12.7 - - - - W 28 48 15 26 1025.4 1025.5 0.0
05/12:30pm 12.5 - - - - W 32 50 17 27 1025.7 1025.8 0.0
05/12:00pm 12.7 - - - - W 28 46 15 25 1026.2 1026.3 0.0
05/11:40am 12.9 - - - - W 28 48 15 26 1026.4 1026.5 0.0
05/11:30am 13.0 - - - - W 28 44 15 24 1026.5 1026.6 0.0
05/11:00am 12.7 - - - - W 30 43 16 23 1026.9 1027.0 0.0
05/10:30am 12.7 - - - - W 28 46 15 25 1027.1 1027.2 0.0
05/10:27am 12.4 - - - - W 28 46 15 25 1027.1 1027.2 0.0
05/10:00am 12.3 - - - - WSW 22 41 12 22 1027.1 1027.2 0.0
05/09:43am 12.5 - - - - W 32 50 17 27 1027.0 1027.1 0.0
05/09:30am 12.4 - - - - W 28 41 15 22 1027.0 1027.1 0.0
05/09:08am 12.1 - - - - W 28 46 15 25 1027.0 1027.1 0.0
05/09:00am 11.8 - - - - W 24 35 13 19 1027.0 1027.1 0.0
05/08:30am 11.9 - - - - W 28 41 15 22 1026.9 1027.0 0.0
05/08:00am 11.2 - - - - WSW 24 39 13 21 1026.9 1027.0 0.0
05/07:30am 11.5 - - - - WSW 20 37 11 20 1026.9 1027.0 0.0
05/07:00am 11.3 - - - - WSW 26 44 14 24 1027.1 1027.2 0.0
05/06:37am 11.6 - - - - WSW 26 56 14 30 1027.0 1027.1 0.0
05/06:30am 11.5 - - - - W 24 33 13 18 1026.9 1027.0 0.0
05/06:00am 11.9 - - - - W 17 32 9 17 1026.8 1026.9 0.0
05/05:30am 12.0 - - - - W 30 43 16 23 1026.7 1026.8 0.0
05/05:00am 12.0 - - - - W 28 39 15 21 1027.0 1027.1 0.0
05/04:30am 11.5 - - - - W 24 35 13 19 1027.0 1027.1 0.0
05/04:00am 12.0 - - - - W 26 46 14 25 1027.1 1027.2 0.0
05/03:51am 12.1 - - - - W 28 46 15 25 1027.1 1027.2 0.0
05/03:30am 12.0 - - - - W 26 39 14 21 1027.3 1027.4 0.0
05/03:00am 12.0 - - - - W 24 35 13 19 1027.4 1027.5 0.0
05/02:30am 11.8 - - - - W 26 37 14 20 1027.7 1027.8 0.0
05/02:00am 11.7 - - - - W 28 39 15 21 1028.1 1028.2 0.0
05/01:30am 11.7 - - - - W 22 35 12 19 1028.1 1028.2 0.0
05/01:00am 11.4 - - - - W 30 41 16 22 1028.4 1028.5 0.0
05/12:30am 11.6 - - - - W 24 33 13 18 1028.7 1028.8 0.0
05/12:00am 11.3 - - - - W 26 35 14 19 1029.0 1029.2 0.0
 
Date/Time
EST
Temp
°C
App
Temp
°C
Dew
Point
°C
Rel
Hum
%
Delta-T
°C
Wind Press
QNH
hPa
Press
MSL
hPa
Rain since
9am
mm
Dir  Spd
km/h
Gust
km/h
Spd
kts
Gust
kts
04/11:30pm 11.5 - - - - W 22 33 12 18 1029.3 1029.5 0.0
04/11:00pm 11.4 - - - - W 20 28 11 15 1029.6 1029.8 0.0
04/10:30pm 11.2 - - - - W 19 30 10 16 1030.1 1030.2 0.0
04/10:00pm 11.2 - - - - W 22 33 12 18 1030.1 1030.2 0.0
04/09:30pm 10.9 - - - - WSW 19 32 10 17 1030.5 1030.6 0.0
04/09:00pm 11.0 - - - - W 20 32 11 17 1030.7 1030.8 0.0
04/08:30pm 11.0 - - - - W 20 30 11 16 1030.9 1031.0 0.0
04/08:00pm 10.8 - - - - WSW 20 35 11 19 1030.9 1031.0 0.0
04/07:30pm 10.8 - - - - W 20 35 11 19 1031.0 1031.1 0.0
04/07:00pm 10.8 - - - - W 20 33 11 18 1031.0 1031.1 0.0
04/06:30pm 10.9 - - - - W 20 32 11 17 1031.0 1031.1 0.0
04/06:00pm 10.7 - - - - W 22 32 12 17 1031.0 1031.1 0.0
04/05:30pm 11.0 - - - - WSW 19 32 10 17 1030.9 1031.0 0.0
04/05:00pm 11.0 - - - - WSW 22 37 12 20 1031.0 1031.1 0.0
04/04:30pm 10.9 - - - - W 20 33 11 18 1031.0 1031.1 0.0
04/04:00pm 10.8 - - - - W 20 32 11 17 1031.1 1031.2 0.0
04/03:30pm 10.9 - - - - WSW 17 33 9 18 1031.3 1031.4 0.0
04/03:00pm 11.0 - - - - W 20 30 11 16 1031.4 1031.5 0.0
04/02:30pm 11.3 - - - - WSW 19 32 10 17 1031.5 1031.6 0.0
04/02:00pm 10.8 - - - - WSW 17 28 9 15 1031.6 1031.7 0.0
04/01:30pm 11.0 - - - - WSW 17 30 9 16 1031.9 1032.0 0.0
04/01:00pm 11.1 - - - - WSW 19 26 10 14 1032.4 1032.5 0.0
04/12:30pm 10.9 - - - - WSW 15 26 8 14 1032.6 1032.7 0.0
04/12:00pm 11.4 - - - - WSW 19 30 10 16 1033.2 1033.3 0.0
04/11:30am 11.2 - - - - WSW 17 32 9 17 1033.4 1033.5 0.0
04/11:00am 10.7 - - - - W 15 26 8 14 1033.8 1033.9 0.0
04/10:30am 10.8 - - - - WSW 17 28 9 15 1033.8 1033.9 0.0
04/10:00am 10.8 - - - - SW 17 26 9 14 1033.7 1033.8 0.0
04/09:30am 10.7 - - - - WSW 13 20 7 11 1033.8 1033.9 0.0
04/09:00am 10.2 - - - - WSW 13 24 7 13 1033.7 1033.8 0.0
04/08:30am 10.2 - - - - SW 22 35 12 19 1033.5 1033.6 0.0
04/08:00am 10.4 - - - - SW 26 35 14 19 1033.2 1033.3 0.0
04/07:30am 10.3 - - - - SW 24 35 13 19 1033.1 1033.2 0.0
04/07:00am 10.2 - - - - SW 19 26 10 14 1033.0 1033.1 0.0
04/06:30am 10.4 - - - - SW 17 28 9 15 1032.9 1033.0 0.0
04/06:00am 10.5 - - - - SW 19 28 10 15 1032.8 1032.9 0.0
04/05:30am 10.4 - - - - SW 20 28 11 15 1032.7 1032.8 0.0
04/05:00am 10.3 - - - - SW 22 28 12 15 1032.7 1032.8 0.0
04/04:30am 10.0 - - - - SW 19 24 10 13 1032.6 1032.7 0.0
04/04:00am 10.5 - - - - SW 20 24 11 13 1032.7 1032.8 0.0
04/03:30am 10.6 - - - - SW 24 32 13 17 1032.9 1033.0 0.0
04/03:00am 10.7 - - - - SW 19 30 10 16 1033.1 1033.2 0.0
04/02:30am 10.5 - - - - SW 17 20 9 11 1033.2 1033.3 0.0
04/02:00am 10.4 - - - - SW 19 26 10 14 1033.1 1033.2 0.0
04/01:30am 10.5 - - - - SSW 22 30 12 16 1033.0 1033.1 0.0
04/01:00am 10.5 - - - - SSW 24 32 13 17 1033.0 1033.1 0.0
04/12:30am 10.6 - - - - SW 28 41 15 22 1033.0 1033.1 0.0
04/12:00am 10.4 - - - - SW 28 39 15 21 1033.2 1033.3 0.0
 
Date/Time
EST
Temp
°C
App
Temp
°C
Dew
Point
°C
Rel
Hum
%
Delta-T
°C
Wind Press
QNH
hPa
Press
MSL
hPa
Rain since
9am
mm
Dir  Spd
km/h
Gust
km/h
Spd
kts
Gust
kts
03/11:30pm 10.2 - - - - SW 28 37 15 20 1033.4 1033.5 0.0
03/11:00pm 10.6 - - - - SW 26 37 14 20 1033.2 1033.3 0.0
03/10:30pm 10.7 - - - - SW 26 35 14 19 1033.2 1033.3 0.0
03/10:00pm 10.5 - - - - SSW 24 35 13 19 1033.1 1033.2 0.0
03/09:30pm 10.6 - - - - SSW 28 37 15 20 1033.0 1033.1 0.0
03/09:00pm 10.7 - - - - SSW 24 35 13 19 1033.0 1033.1 0.0
03/08:30pm 10.3 - - - - SSW 26 35 14 19 1032.6 1032.7 0.0
03/08:00pm 10.2 - - - - SSW 30 44 16 24 1032.5 1032.6 0.0
03/07:30pm 10.1 - - - - SSW 28 39 15 21 1032.4 1032.5 0.0
03/07:06pm 10.1 - - - - SW 28 46 15 25 1032.1 1032.2 0.0
03/07:00pm 10.2 - - - - SW 32 46 17 25 1032.1 1032.2 0.0
03/06:30pm 10.6 - - - - SSW 28 39 15 21 1031.9 1032.0 0.0
03/06:00pm 10.4 - - - - SSW 30 35 16 19 1031.7 1031.8 0.0
03/05:30pm 10.5 - - - - SSW 30 39 16 21 1031.3 1031.4 0.0
03/05:00pm 10.6 - - - - SW 33 43 18 23 1031.0 1031.1 0.0
03/04:30pm 10.7 - - - - SW 30 43 16 23 1030.9 1031.0 0.0
03/04:00pm 10.7 - - - - SSW 26 35 14 19 1030.8 1030.9 0.0
03/03:30pm 10.7 - - - - SSW 30 44 16 24 1030.7 1030.8 0.0
03/03:00pm 10.7 - - - - SSW 28 37 15 20 1030.4 1030.5 0.0
03/02:30pm 11.1 - - - - SSW 33 44 18 24 1030.1 1030.2 0.0
03/02:00pm 10.9 - - - - SSW 32 43 17 23 1029.9 1030.0 0.0
03/01:30pm 10.8 - - - - SSW 33 43 18 23 1029.9 1030.0 0.0
03/01:00pm 11.1 - - - - SSW 33 43 18 23 1030.0 1030.1 0.0
03/12:30pm 11.0 - - - - SSW 33 44 18 24 1029.9 1030.0 0.0
03/12:00pm 11.3 - - - - SSW 37 50 20 27 1029.8 1029.9 0.0
03/11:30am 10.7 - - - - SSW 37 50 20 27 1029.5 1029.7 0.0
03/11:00am 10.9 - - - - SSW 39 52 21 28 1029.3 1029.5 0.0
03/10:30am 10.8 - - - - SSW 41 56 22 30 1029.0 1029.2 0.0
03/10:02am 10.7 - - - - SSW 35 56 19 30 1028.5 1028.6 0.0
03/10:00am 10.6 - - - - SSW 33 44 18 24 1028.5 1028.6 0.0
03/09:30am 10.6 - - - - SSW 39 56 21 30 1028.2 1028.3 0.0
03/09:00am 10.5 - - - - SSW 43 63 23 34 1027.7 1027.8 1.0
03/08:30am 10.5 - - - - SSW 43 61 23 33 1027.0 1027.1 1.0
03/08:00am 10.5 - - - - S 43 63 23 34 1026.4 1026.5 1.0
03/07:30am 10.1 - - - - SSW 54 76 29 41 1025.7 1025.8 1.0
03/07:01am 10.5 - - - - SSW 54 74 29 40 1024.8 1024.9 1.0
03/07:00am 10.5 - - - - SSW 54 70 29 38 1025.0 1025.1 1.0
03/06:36am 10.4 - - - - SSW 54 72 29 39 1024.4 1024.5 1.0
03/06:30am 10.5 - - - - SSW 57 74 31 40 1024.1 1024.2 1.0
03/06:00am 10.6 - - - - SSW 56 74 30 40 1023.2 1023.3 1.0
03/05:34am 10.5 - - - - SSW 56 74 30 40 1022.6 1022.7 1.0
03/05:30am 10.5 - - - - SSW 56 70 30 38 1022.6 1022.7 1.0
03/05:00am 10.4 - - - - SSW 54 72 29 39 1021.8 1021.9 1.0
03/04:35am 10.8 - - - - SSW 59 78 32 42 1021.1 1021.2 1.0
03/04:30am 10.7 - - - - SSW 59 76 32 41 1020.7 1020.8 1.0
03/04:05am 10.7 - - - - SSW 54 72 29 39 1020.1 1020.2 1.0
03/04:00am 10.6 - - - - SW 56 72 30 39 1020.1 1020.2 1.0
03/03:30am 11.0 - - - - SW 54 80 29 43 1019.6 1019.7 1.0
03/03:02am 10.9 - - - - SSW 54 76 29 41 1019.3 1019.3 1.0
03/03:00am 11.0 - - - - SSW 52 69 28 37 1019.4 1019.5 1.0
03/02:31am 10.9 - - - - SSW 50 69 27 37 1019.0 1019.0 1.0
03/02:30am 10.8 - - - - SSW 52 69 28 37 1019.0 1019.0 1.0
03/02:06am 11.0 - - - - SW 63 82 34 44 1018.2 1018.2 1.0
03/02:00am 11.0 - - - - SW 65 80 35 43 1018.1 1018.1 1.0
03/01:36am 10.9 - - - - SW 67 85 36 46 1017.4 1017.5 1.0
03/01:30am 10.8 - - - - SW 69 83 37 45 1017.2 1017.3 1.0
03/01:00am 11.2 - - - - SW 69 87 37 47 1017.0 1017.1 1.0
03/12:50am 10.9 - - - - SW 69 91 37 49 1016.9 1017.0 1.0
03/12:30am 10.8 - - - - SW 69 85 37 46 1016.6 1016.7 1.0
03/12:16am 10.6 - - - - SW 67 85 36 46 1016.5 1016.6 1.0
03/12:00am 10.9 - - - - SW 63 74 34 40 1016.5 1016.6 1.0

Other formats

Comma delimited format used in spreadsheet applications
http://www.bom.gov.au/fwo/IDT60801/IDT60801.95954.axf

JavaScript Object Notation format (JSON) in row-major order
http://www.bom.gov.au/fwo/IDT60801/IDT60801.95954.json

Data quality

Most of these data are generated automatically and are frequently updated. Quality checks on data are not normally performed. It is possible for incorrect values to appear. Refer to information at About Latest Weather Observations and please check the disclaimer before using these data.